Time;durP1;ratioP1;P1;durP2;ratioP2;P2;SDS_P1;SDS_P2;PMS_P1;PMS_P2;Temp;Humidity;BMP_temperature;BMP_pressure;BME280_temperature;BME280_humidity;BME280_pressure;Samples;Min_cycle;Max_cycle;Signal;HPM_P1;HPM_P2
2024/01/10 00:03:35;;;;;;;32.25;13.90;;;19.90;44.50;;;;;;8323346;28;20079;-47
2024/01/10 00:07:36;;;;;;;38.38;14.15;;;20.00;43.70;;;;;;8322815;28;20555;-47
2024/01/10 00:11:36;;;;;;;42.13;14.48;;;20.00;43.40;;;;;;8322844;28;20041;-49
2024/01/10 00:15:37;;;;;;;37.45;14.98;;;20.00;43.00;;;;;;8320624;28;20034;-49
2024/01/10 00:19:38;;;;;;;35.25;14.18;;;20.10;42.90;;;;;;8325043;28;20018;-48
2024/01/10 00:23:39;;;;;;;30.25;13.65;;;20.10;42.70;;;;;;8324964;28;20060;-49
2024/01/10 00:27:39;;;;;;;30.05;13.65;;;20.10;42.30;;;;;;8324347;28;20049;-48
2024/01/10 00:31:40;;;;;;;29.35;12.57;;;20.20;42.20;;;;;;8324717;28;20026;-47
2024/01/10 00:35:41;;;;;;;38.97;12.90;;;20.30;42.00;;;;;;8324248;28;20065;-50
2024/01/10 00:39:42;;;;;;;34.30;13.25;;;20.30;41.80;;;;;;8323992;28;20108;-47
2024/01/10 00:43:43;;;;;;;30.65;12.52;;;20.20;42.50;;;;;;8324191;28;20026;-48
2024/01/10 00:47:43;;;;;;;31.85;12.77;;;20.10;43.80;;;;;;8323247;28;20060;-49
2024/01/10 00:51:44;;;;;;;32.22;11.77;;;20.00;43.40;;;;;;8324155;28;20383;-48
2024/01/10 00:55:45;;;;;;;31.50;11.70;;;20.10;43.00;;;;;;8323484;28;20049;-49
2024/01/10 00:59:45;;;;;;;28.63;11.85;;;20.20;42.40;;;;;;8323731;28;20026;-48
2024/01/10 01:03:46;;;;;;;27.52;12.45;;;20.30;42.30;;;;;;8323434;28;20051;-48
2024/01/10 01:07:47;;;;;;;25.77;10.55;;;20.30;42.10;;;;;;8323362;28;20451;-49
2024/01/10 01:11:47;;;;;;;24.67;11.52;;;20.30;41.90;;;;;;8323271;28;20045;-48
2024/01/10 01:15:48;;;;;;;26.52;11.98;;;20.30;41.70;;;;;;8323233;28;20100;-48
2024/01/10 01:19:49;;;;;;;27.70;11.90;;;20.30;41.60;;;;;;8323238;28;20041;-47
2024/01/10 01:23:50;;;;;;;22.33;10.38;;;20.30;41.50;;;;;;8323072;28;20096;-49
2024/01/10 01:27:50;;;;;;;28.23;11.25;;;20.30;41.40;;;;;;8323029;28;20364;-49
2024/01/10 01:31:52;;;;;;;22.27;10.00;;;20.20;41.90;;;;;;8322741;28;20041;-49
2024/01/10 01:35:54;;;;;;;28.30;11.13;;;20.10;43.50;;;;;;8322652;28;20040;-48
2024/01/10 01:39:55;;;;;;;23.48;10.10;;;20.00;42.90;;;;;;8323382;28;20037;-48
2024/01/10 01:43:55;;;;;;;23.27;9.25;;;20.00;42.50;;;;;;8324457;28;20125;-48
2024/01/10 01:47:56;;;;;;;21.30;9.45;;;20.00;42.10;;;;;;8323105;28;20125;-47
2024/01/10 01:51:57;;;;;;;21.92;8.95;;;20.10;42.00;;;;;;8325565;28;20029;-47
2024/01/10 01:56:03;;;;;;;22.08;8.55;;;20.10;41.90;;;;;;8326405;28;20040;-50
2024/01/10 02:00:05;;;;;;;20.10;9.27;;;20.00;41.70;;;;;;8330395;28;20030;-48
2024/01/10 02:04:05;;;;;;;17.33;9.43;;;20.00;41.60;;;;;;8332401;28;20040;-47
2024/01/10 02:08:06;;;;;;;20.33;9.27;;;20.00;41.50;;;;;;8332677;28;20086;-47
2024/01/10 02:12:07;;;;;;;18.77;9.13;;;20.00;41.40;;;;;;8332289;28;20033;-47
2024/01/10 02:16:09;;;;;;;23.90;9.45;;;20.00;41.30;;;;;;8332098;28;20044;-48
2024/01/10 02:20:15;;;;;;;20.35;8.57;;;19.90;42.30;;;;;;8331956;28;20053;-47
2024/01/10 02:24:16;;;;;;;17.40;8.18;;;19.70;43.10;;;;;;8331961;28;20552;-47
2024/01/10 02:28:17;;;;;;;18.30;8.23;;;19.60;42.90;;;;;;8331738;28;20360;-49
2024/01/10 02:32:17;;;;;;;18.20;8.90;;;19.80;42.50;;;;;;8331615;28;20068;-48
2024/01/10 02:36:18;;;;;;;19.23;8.45;;;19.80;42.10;;;;;;8331706;28;20045;-48
2024/01/10 02:40:19;;;;;;;19.77;8.00;;;19.90;42.00;;;;;;8331185;28;20033;-49
2024/01/10 02:44:19;;;;;;;15.63;7.60;;;19.80;41.60;;;;;;8331390;28;20112;-45
2024/01/10 02:48:20;;;;;;;15.95;7.63;;;19.80;41.50;;;;;;8331014;28;20096;-45
2024/01/10 02:52:21;;;;;;;18.35;7.40;;;19.90;41.50;;;;;;8331782;28;20479;-45
2024/01/10 02:56:22;;;;;;;17.48;7.28;;;19.80;41.40;;;;;;8330904;28;20049;-46
2024/01/10 03:00:22;;;;;;;16.58;7.47;;;19.90;41.40;;;;;;8330653;28;20041;-45
2024/01/10 03:04:23;;;;;;;16.17;6.47;;;19.80;41.30;;;;;;8330292;28;20030;-46
2024/01/10 03:08:24;;;;;;;16.55;7.28;;;19.70;42.30;;;;;;8330907;28;20391;-45
2024/01/10 03:12:24;;;;;;;14.35;7.20;;;19.60;43.10;;;;;;8329615;28;20116;-46
2024/01/10 03:16:25;;;;;;;14.30;6.95;;;19.60;42.80;;;;;;8329043;28;20042;-46
2024/01/10 03:20:26;;;;;;;13.80;7.20;;;19.60;42.30;;;;;;8330070;28;20041;-47
2024/01/10 03:24:27;;;;;;;18.42;7.88;;;19.70;42.10;;;;;;8329890;28;20296;-46
2024/01/10 03:28:28;;;;;;;19.00;7.93;;;19.70;41.70;;;;;;8329712;28;20033;-46
2024/01/10 03:32:28;;;;;;;13.90;6.18;;;19.70;41.50;;;;;;8329773;28;20091;-46
2024/01/10 03:36:29;;;;;;;14.23;6.15;;;19.80;41.40;;;;;;8330624;28;20132;-47
2024/01/10 03:40:30;;;;;;;17.33;7.03;;;19.80;41.30;;;;;;8329500;28;20037;-45
2024/01/10 03:44:30;;;;;;;17.42;7.60;;;19.80;41.30;;;;;;8329367;28;20033;-46
2024/01/10 03:48:31;;;;;;;12.20;5.95;;;19.70;41.20;;;;;;8329222;28;20033;-45
2024/01/10 03:52:32;;;;;;;13.55;6.20;;;19.80;41.20;;;;;;8329264;28;20095;-47
2024/01/10 03:56:33;;;;;;;15.02;6.43;;;19.60;42.10;;;;;;8328886;28;20033;-48
2024/01/10 04:00:33;;;;;;;12.57;6.00;;;19.40;43.00;;;;;;8328895;28;20124;-48
2024/01/10 04:04:38;;;;;;;13.18;6.65;;;19.50;42.60;;;;;;8328891;28;20099;-47
2024/01/10 04:08:38;;;;;;;13.07;5.82;;;19.60;42.10;;;;;;8328277;28;20041;-48
2024/01/10 04:12:40;;;;;;;11.80;5.82;;;19.70;41.80;;;;;;8328421;28;20048;-46
2024/01/10 04:16:40;;;;;;;12.80;5.63;;;19.70;41.60;;;;;;8328340;28;20064;-47
2024/01/10 04:20:42;;;;;;;12.93;5.93;;;19.70;41.40;;;;;;8327022;28;20036;-47
2024/01/10 04:24:43;;;;;;;8.00;4.85;;;19.70;41.80;;;;;;8327019;28;20370;-48
2024/01/10 04:28:43;;;;;;;10.40;5.50;;;19.70;41.20;;;;;;8328103;28;20033;-47
2024/01/10 04:32:44;;;;;;;10.68;5.82;;;19.70;41.10;;;;;;8327895;28;20042;-46
2024/01/10 04:36:45;;;;;;;11.90;5.40;;;19.70;41.00;;;;;;8328103;28;20042;-48
2024/01/10 04:40:45;;;;;;;13.23;5.50;;;19.70;41.00;;;;;;8327792;28;20060;-47
2024/01/10 04:44:46;;;;;;;11.15;5.28;;;19.60;42.10;;;;;;8327427;28;20120;-47
2024/01/10 04:48:47;;;;;;;10.02;5.50;;;19.40;42.80;;;;;;8327490;28;20472;-47
2024/01/10 04:52:48;;;;;;;10.65;5.20;;;19.50;42.30;;;;;;8327334;28;20033;-47
2024/01/10 04:56:48;;;;;;;9.43;4.80;;;19.50;41.80;;;;;;8327329;28;20040;-47
2024/01/10 05:00:49;;;;;;;9.60;4.82;;;19.60;41.60;;;;;;8327410;28;20029;-47
2024/01/10 05:04:50;;;;;;;10.93;4.43;;;19.70;41.40;;;;;;8326868;28;20269;-48
2024/01/10 05:08:50;;;;;;;8.68;4.70;;;19.60;41.20;;;;;;8326906;28;20099;-48
2024/01/10 05:12:51;;;;;;;8.75;4.80;;;19.70;41.10;;;;;;8327068;28;20044;-47
2024/01/10 05:16:53;;;;;;;8.93;4.50;;;19.70;41.00;;;;;;8326742;28;20030;-46
2024/01/10 05:20:54;;;;;;;7.30;4.22;;;19.70;40.90;;;;;;8326908;28;20111;-47
2024/01/10 05:24:54;;;;;;;10.70;4.50;;;19.80;40.80;;;;;;8325458;28;20069;-48
2024/01/10 05:28:55;;;;;;;9.13;4.78;;;19.70;40.70;;;;;;8325523;28;20097;-47
2024/01/10 05:32:56;;;;;;;8.82;4.15;;;19.60;41.90;;;;;;8327096;28;20061;-47
2024/01/10 05:36:56;;;;;;;9.95;4.78;;;19.40;42.60;;;;;;8333379;28;20037;-48
2024/01/10 05:40:57;;;;;;;8.67;4.70;;;19.50;42.10;;;;;;8333328;28;20038;-47
2024/01/10 05:45:02;;;;;;;8.02;5.15;;;19.60;41.70;;;;;;8333060;28;20300;-46
2024/01/10 05:49:04;;;;;;;8.13;4.57;;;19.60;41.40;;;;;;8332858;28;20047;-49
2024/01/10 05:53:05;;;;;;;7.80;4.25;;;19.70;41.20;;;;;;8331756;28;20091;-46
2024/01/10 05:57:05;;;;;;;9.63;4.68;;;19.70;41.10;;;;;;8332629;28;20037;-47
2024/01/10 06:01:09;;;;;;;10.73;5.05;;;19.60;40.80;;;;;;8332643;28;20033;-47
2024/01/10 06:05:11;;;;;;;6.20;3.58;;;19.70;40.80;;;;;;8332252;28;20049;-47
2024/01/10 06:09:12;;;;;;;7.03;4.13;;;19.70;40.70;;;;;;8332154;28;20049;-46
2024/01/10 06:13:13;;;;;;;9.38;4.80;;;19.70;40.60;;;;;;8331234;28;20069;-49
2024/01/10 06:17:14;;;;;;;8.60;3.97;;;19.70;40.90;;;;;;8331937;28;20029;-48
2024/01/10 06:21:14;;;;;;;7.38;3.95;;;19.50;41.90;;;;;;8332103;28;20044;-48
2024/01/10 06:25:15;;;;;;;9.07;4.28;;;19.30;42.60;;;;;;8332729;28;20479;-49
2024/01/10 06:29:16;;;;;;;8.45;4.18;;;19.40;41.90;;;;;;8331625;28;20045;-49
2024/01/10 06:33:17;;;;;;;11.23;4.18;;;19.50;41.50;;;;;;8331699;28;20037;-47
2024/01/10 06:37:18;;;;;;;6.72;3.72;;;19.60;41.20;;;;;;8331250;28;20193;-49
2024/01/10 06:41:23;;;;;;;;;;;19.70;41.00;;;;;;8331626;28;20034;-47
2024/01/10 06:45:23;;;;;;;5.88;3.35;;;19.70;40.80;;;;;;8330596;28;20010;-48
2024/01/10 06:49:24;;;;;;;8.80;3.50;;;19.70;40.70;;;;;;8331073;28;20033;-48
2024/01/10 06:53:27;;;;;;;6.68;3.65;;;19.70;40.60;;;;;;8330996;28;20033;-48
2024/01/10 06:57:27;;;;;;;7.15;3.53;;;19.70;40.50;;;;;;8330794;28;20129;-47
2024/01/10 07:01:28;;;;;;;8.30;3.58;;;19.70;40.50;;;;;;8330704;28;20036;-48
2024/01/10 07:05:31;;;;;;;7.85;4.43;;;19.70;40.70;;;;;;8330237;28;20605;-47
2024/01/10 07:09:32;;;;;;;6.40;3.28;;;19.50;41.70;;;;;;8330433;28;20105;-48
2024/01/10 07:13:32;;;;;;;7.53;3.83;;;19.40;42.20;;;;;;8330289;28;20395;-47
2024/01/10 07:17:33;;;;;;;4.80;3.00;;;19.50;41.70;;;;;;8330122;28;20033;-48
2024/01/10 07:21:34;;;;;;;6.10;3.58;;;19.50;41.20;;;;;;8330104;28;20030;-47
2024/01/10 07:25:34;;;;;;;7.30;3.45;;;19.60;41.00;;;;;;8330009;28;20046;-47
2024/01/10 07:29:35;;;;;;;4.93;2.95;;;19.60;40.70;;;;;;8329732;28;20029;-49
2024/01/10 07:33:36;;;;;;;7.30;3.50;;;19.70;40.70;;;;;;8328516;28;20033;-48
2024/01/10 07:37:38;;;;;;;6.22;3.42;;;19.70;40.50;;;;;;8329701;28;20037;-46
2024/01/10 07:41:38;;;;;;;6.50;3.80;;;19.70;40.40;;;;;;8328087;28;20450;-48
2024/01/10 07:45:39;;;;;;;6.30;3.22;;;19.70;40.40;;;;;;8329509;28;20056;-48
2024/01/10 07:49:40;;;;;;;6.07;3.22;;;19.60;40.30;;;;;;8329161;28;20475;-48
2024/01/10 07:53:40;;;;;;;5.93;2.97;;;19.60;40.70;;;;;;8329091;28;20030;-48
2024/01/10 07:57:42;;;;;;;5.55;3.00;;;19.40;41.70;;;;;;8328916;28;20423;-47
2024/01/10 08:01:53;;;;;;;4.80;2.85;;;19.30;42.00;;;;;;8328870;28;20033;-48
2024/01/10 08:05:54;;;;;;;5.43;3.20;;;19.50;41.50;;;;;;8328922;28;20077;-49
2024/01/10 08:09:55;;;;;;;4.80;3.08;;;19.50;41.10;;;;;;8328302;28;20045;-47
2024/01/10 08:13:55;;;;;;;6.35;3.25;;;19.60;40.80;;;;;;8328425;28;20040;-47
2024/01/10 08:17:56;;;;;;;5.93;3.33;;;19.60;40.70;;;;;;8328391;28;20025;-47
2024/01/10 08:21:57;;;;;;;5.25;2.78;;;19.70;40.60;;;;;;8328115;28;20037;-46
2024/01/10 08:25:58;;;;;;;5.55;3.10;;;19.70;40.40;;;;;;8328157;28;20111;-47
2024/01/10 08:29:59;;;;;;;7.78;3.60;;;19.70;40.40;;;;;;8328009;28;20029;-48
2024/01/10 08:33:59;;;;;;;4.15;2.35;;;19.70;40.30;;;;;;8328127;28;20041;-47
2024/01/10 08:38:02;;;;;;;6.45;3.25;;;19.60;40.20;;;;;;8327656;28;20483;-49
2024/01/10 08:42:03;;;;;;;5.32;2.80;;;19.60;40.70;;;;;;8327200;28;20034;-47
2024/01/10 08:46:04;;;;;;;7.22;3.38;;;19.40;41.70;;;;;;8327583;28;20036;-47
2024/01/10 08:50:08;;;;;;;6.80;3.53;;;19.30;41.80;;;;;;8327456;28;20030;-50
2024/01/10 08:54:09;;;;;;;4.55;2.85;;;19.40;41.30;;;;;;8327082;28;20486;-49
2024/01/10 08:58:09;;;;;;;5.95;2.75;;;19.50;41.50;;;;;;8327313;28;20395;-47
2024/01/10 09:02:10;;;;;;;5.30;2.83;;;19.60;40.70;;;;;;8327068;28;20041;-47
2024/01/10 09:06:11;;;;;;;5.03;2.72;;;19.60;40.50;;;;;;8326752;28;20030;-48
2024/01/10 09:10:12;;;;;;;5.22;2.85;;;19.70;40.50;;;;;;8326342;28;20054;-47
2024/01/10 09:14:12;;;;;;;4.88;3.25;;;19.70;40.30;;;;;;8326774;28;20041;-48
2024/01/10 09:18:13;;;;;;;4.80;2.75;;;19.60;40.20;;;;;;8326855;28;20549;-48
2024/01/10 09:22:14;;;;;;;4.63;2.70;;;19.70;40.20;;;;;;8326662;28;20041;-48
2024/01/10 09:26:14;;;;;;;5.63;2.70;;;19.60;40.00;;;;;;8326717;28;20033;-47
2024/01/10 09:30:16;;;;;;;4.55;2.78;;;19.60;40.80;;;;;;8327123;28;20040;-47
2024/01/10 09:34:17;;;;;;;3.97;2.40;;;19.40;41.70;;;;;;8326681;28;20075;-47
2024/01/10 09:38:18;;;;;;;3.72;2.63;;;19.30;41.70;;;;;;8325359;28;20034;-48
2024/01/10 09:42:21;;;;;;;4.97;2.60;;;19.40;41.20;;;;;;8326502;28;20037;-48
2024/01/10 09:46:22;;;;;;;3.97;2.88;;;19.50;40.80;;;;;;8326402;28;20025;-48
2024/01/10 09:50:25;;;;;;;4.47;3.03;;;19.60;40.60;;;;;;8326172;28;20053;-47
2024/01/10 09:54:29;;;;;;;3.65;1.95;;;19.60;40.40;;;;;;8326339;28;20128;-47
2024/01/10 09:58:31;;;;;;;4.40;2.40;;;19.60;40.30;;;;;;8326067;28;20037;-48
2024/01/10 10:02:32;;;;;;;4.07;2.20;;;19.60;40.20;;;;;;8326021;28;20088;-47
2024/01/10 10:06:34;;;;;;;3.63;2.40;;;19.60;40.10;;;;;;8326290;28;20025;-48
2024/01/10 10:10:35;;;;;;;4.75;2.47;;;19.60;40.10;;;;;;8325711;28;20054;-47
2024/01/10 10:14:35;;;;;;;2.67;2.03;;;19.70;40.00;;;;;;8325978;28;20037;-49
2024/01/10 10:18:36;;;;;;;3.28;2.20;;;19.60;40.80;;;;;;8326054;28;20037;-48
2024/01/10 10:22:37;;;;;;;4.95;2.33;;;19.30;41.60;;;;;;8330073;28;20033;-47
2024/01/10 10:26:38;;;;;;;4.93;2.55;;;19.30;41.50;;;;;;8331911;28;20163;-48
2024/01/10 10:30:38;;;;;;;3.75;2.53;;;19.40;41.10;;;;;;8332489;28;20045;-49
2024/01/10 10:34:39;;;;;;;4.22;2.42;;;19.50;40.80;;;;;;8331378;28;20083;-47
2024/01/10 10:38:40;;;;;;;3.55;1.98;;;19.50;40.60;;;;;;8331633;28;20030;-47
2024/01/10 10:42:47;;;;;;;4.30;2.50;;;19.60;40.40;;;;;;8331833;28;20029;-47
2024/01/10 10:46:55;;;;;;;3.65;2.10;;;19.60;40.30;;;;;;8331264;28;20227;-47
2024/01/10 10:51:10;;;;;;;4.50;2.53;;;19.60;40.10;;;;;;8331260;28;20025;-48
2024/01/10 10:55:16;;;;;;;5.05;2.33;;;19.60;39.90;;;;;;8331025;28;20502;-47
2024/01/10 10:59:20;;;;;;;3.42;2.38;;;19.70;39.90;;;;;;8331047;28;20025;-47
2024/01/10 11:03:21;;;;;;;4.05;2.22;;;19.70;39.80;;;;;;8331246;28;20025;-46
2024/01/10 11:07:22;;;;;;;4.13;2.33;;;19.50;40.80;;;;;;8330419;28;20030;-47
2024/01/10 11:11:34;;;;;;;;;;;19.30;41.60;;;;;;8331123;28;20467;-48
2024/01/10 11:15:34;;;;;;;3.40;2.05;;;19.40;41.30;;;;;;8330741;28;20451;-47
2024/01/10 11:20:04;;;;;;;2.80;2.13;;;19.50;40.90;;;;;;8330195;28;20471;-48
2024/01/10 11:24:06;;;;;;;4.28;2.10;;;19.50;40.50;;;;;;8330124;28;20037;-48
2024/01/10 11:28:07;;;;;;;4.22;2.30;;;19.60;40.30;;;;;;8329997;28;20489;-46
2024/01/10 11:32:23;;;;;;;2.85;2.30;;;19.60;40.20;;;;;;8329559;28;20434;-47
2024/01/10 11:36:27;;;;;;;4.18;2.30;;;19.60;40.10;;;;;;8329767;28;20018;-47
2024/01/10 11:40:48;;;;;;;4.03;2.58;;;19.60;40.00;;;;;;8329442;28;20033;-47
2024/01/10 11:44:50;;;;;;;3.42;2.05;;;19.60;39.90;;;;;;8329370;28;20029;-46
2024/01/10 11:48:51;;;;;;;3.95;2.20;;;19.60;39.80;;;;;;8329420;28;20581;-46
2024/01/10 11:52:54;;;;;;;3.42;2.08;;;19.60;40.20;;;;;;8329402;28;20489;-47
2024/01/10 11:56:55;;;;;;;2.15;1.85;;;19.40;41.20;;;;;;8328886;28;20442;-47
2024/01/10 12:00:56;;;;;;;3.78;2.10;;;19.30;41.50;;;;;;8329239;28;20034;-47
2024/01/10 12:04:57;;;;;;;4.25;2.15;;;19.40;41.00;;;;;;8328857;28;20038;-47
2024/01/10 12:08:59;;;;;;;3.40;2.22;;;19.50;40.60;;;;;;8327308;28;20050;-47
2024/01/10 12:12:59;;;;;;;3.03;2.08;;;19.60;40.40;;;;;;8328693;28;20384;-48
2024/01/10 12:17:04;;;;;;;3.90;2.20;;;19.60;40.20;;;;;;8328430;28;20120;-47
2024/01/10 12:21:05;;;;;;;3.08;1.90;;;19.60;40.10;;;;;;8328280;28;20037;-48
2024/01/10 12:25:06;;;;;;;3.03;1.85;;;19.60;40.00;;;;;;8328148;28;20111;-47
2024/01/10 12:29:06;;;;;;;2.92;2.17;;;19.60;39.80;;;;;;8328104;28;20104;-49
2024/01/10 12:33:09;;;;;;;3.30;2.20;;;19.70;39.90;;;;;;8327918;28;20553;-47
2024/01/10 12:37:11;;;;;;;3.47;2.08;;;19.70;39.80;;;;;;8327883;28;20043;-48
2024/01/10 12:41:14;;;;;;;3.90;2.28;;;19.60;40.80;;;;;;8327766;28;20034;-47
2024/01/10 12:45:22;;;;;;;3.97;2.38;;;19.40;41.20;;;;;;8326629;28;20076;-46
2024/01/10 12:49:23;;;;;;;3.03;2.05;;;19.30;41.30;;;;;;8327395;28;20040;-47
2024/01/10 12:53:23;;;;;;;;;;;19.40;40.90;;;;;;8327549;28;20032;-47
2024/01/10 12:57:24;;;;;;;3.30;2.00;;;19.50;40.50;;;;;;8309990;28;20012;-46
2024/01/10 13:01:25;;;;;;;2.90;2.03;;;19.60;40.30;;;;;;8327419;28;20437;-47
2024/01/10 13:05:25;;;;;;;2.90;1.95;;;19.60;40.10;;;;;;8326749;28;20116;-46
2024/01/10 13:09:26;;;;;;;2.70;2.03;;;19.60;39.90;;;;;;8326825;28;20060;-50
2024/01/10 13:13:27;;;;;;;3.13;2.08;;;19.70;39.90;;;;;;8327011;28;20050;-47
2024/01/10 13:17:28;;;;;;;3.13;2.00;;;19.70;39.80;;;;;;8326677;28;20033;-47
2024/01/10 13:21:28;;;;;;;3.40;2.20;;;19.70;39.80;;;;;;8326965;28;20439;-48
2024/01/10 13:25:29;;;;;;;2.45;1.50;;;19.60;39.60;;;;;;8326740;28;20040;-47
2024/01/10 13:29:30;;;;;;;3.10;1.90;;;19.60;40.30;;;;;;8326492;28;20030;-51
2024/01/10 13:33:30;;;;;;;4.25;2.00;;;19.30;41.40;;;;;;8324819;28;20315;-47
2024/01/10 13:37:32;;;;;;;3.88;2.00;;;19.30;41.50;;;;;;8326226;28;20145;-46
2024/01/10 13:41:33;;;;;;;3.17;2.15;;;19.50;41.30;;;;;;8326192;28;20628;-48
2024/01/10 13:45:34;;;;;;;3.95;2.10;;;19.60;40.90;;;;;;8326225;28;20104;-48
2024/01/10 13:49:35;;;;;;;4.18;2.08;;;19.70;41.10;;;;;;8326071;28;20464;-48
2024/01/10 13:53:36;;;;;;;3.55;2.20;;;19.70;41.20;;;;;;8326116;28;20636;-48
2024/01/10 13:57:36;;;;;;;3.35;2.20;;;19.70;41.50;;;;;;8332737;28;20076;-48
2024/01/10 14:01:37;;;;;;;3.10;2.13;;;19.80;41.40;;;;;;8332473;28;20040;-46
2024/01/10 14:05:38;;;;;;;3.75;1.90;;;19.70;41.30;;;;;;8327148;28;20030;-46
2024/01/10 14:09:38;;;;;;;2.80;2.08;;;19.70;41.30;;;;;;8299502;28;20077;-47
2024/01/10 14:13:39;;;;;;;2.80;2.15;;;19.70;41.20;;;;;;8299342;28;20113;-48
2024/01/10 14:17:41;;;;;;;2.90;2.20;;;19.70;42.00;;;;;;8298009;28;20042;-48
2024/01/10 14:21:41;;;;;;;4.10;2.17;;;19.50;42.80;;;;;;8299276;28;20072;-49
2024/01/10 14:25:42;;;;;;;4.93;2.13;;;19.50;42.60;;;;;;8299696;28;20053;-47
2024/01/10 14:29:43;;;;;;;3.17;1.83;;;19.60;42.20;;;;;;8332092;28;20021;-48
2024/01/10 14:33:44;;;;;;;3.13;2.20;;;19.70;41.80;;;;;;8331748;28;20033;-48
2024/01/10 14:37:45;;;;;;;;;;;19.70;41.60;;;;;;8332990;28;20108;-47
2024/01/10 14:41:46;;;;;;;2.60;1.87;;;19.70;41.50;;;;;;8331221;28;19944;-48
2024/01/10 14:45:47;;;;;;;2.60;2.10;;;19.70;41.30;;;;;;8330894;28;20716;-48
2024/01/10 14:49:47;;;;;;;3.55;1.83;;;19.70;41.30;;;;;;8331374;28;20108;-49
2024/01/10 14:53:48;;;;;;;2.13;1.60;;;19.70;41.20;;;;;;8331039;28;20033;-50
2024/01/10 14:57:49;;;;;;;3.08;1.98;;;19.70;41.10;;;;;;8329488;28;20052;-48
2024/01/10 15:01:50;;;;;;;2.92;1.98;;;19.60;41.00;;;;;;8330804;28;20029;-48
2024/01/10 15:05:51;;;;;;;3.20;1.90;;;19.60;41.90;;;;;;8329625;28;20034;-48
2024/01/10 15:09:52;;;;;;;2.65;1.70;;;19.40;42.80;;;;;;8345687;28;20079;-49
2024/01/10 15:13:53;;;;;;;5.25;2.08;;;19.50;42.60;;;;;;8330358;28;20601;-48
2024/01/10 15:17:53;;;;;;;2.13;1.52;;;19.50;42.10;;;;;;8330255;28;20029;-48
2024/01/10 15:21:54;;;;;;;3.38;1.90;;;19.60;41.70;;;;;;8330126;28;20112;-48
2024/01/10 15:25:54;;;;;;;3.22;1.95;;;19.70;41.60;;;;;;8329106;28;20486;-48
2024/01/10 15:29:55;;;;;;;3.70;1.83;;;19.60;41.40;;;;;;8329864;28;20506;-49
2024/01/10 15:33:56;;;;;;;2.92;1.77;;;19.70;41.30;;;;;;8329945;28;20083;-48
2024/01/10 15:37:56;;;;;;;2.33;1.73;;;19.60;41.10;;;;;;8328555;28;20033;-49
2024/01/10 15:41:57;;;;;;;2.00;1.48;;;19.70;41.10;;;;;;8329351;28;20041;-48
2024/01/10 15:45:58;;;;;;;2.58;1.83;;;19.70;41.10;;;;;;8329406;28;20338;-48
2024/01/10 15:49:59;;;;;;;3.13;1.70;;;19.70;41.00;;;;;;8327995;28;20148;-46
2024/01/10 15:54:00;;;;;;;3.05;2.10;;;19.50;42.10;;;;;;8329239;28;20037;-47
2024/01/10 15:58:00;;;;;;;2.95;1.88;;;19.40;42.90;;;;;;8328995;28;20034;-47
2024/01/10 16:02:02;;;;;;;2.00;1.60;;;19.40;42.70;;;;;;8329027;28;20087;-46
2024/01/10 16:06:03;;;;;;;3.08;2.28;;;19.50;42.40;;;;;;8328912;28;20117;-46
2024/01/10 16:10:04;;;;;;;2.30;1.60;;;19.60;42.10;;;;;;8328018;28;20045;-46
2024/01/10 16:14:04;;;;;;;2.25;1.70;;;19.60;41.90;;;;;;8328444;28;20561;-45
2024/01/10 16:18:05;;;;;;;2.70;1.35;;;19.60;41.70;;;;;;8328835;28;20030;-45
2024/01/10 16:22:06;;;;;;;3.05;1.90;;;19.60;41.60;;;;;;8328429;28;20079;-46
2024/01/10 16:26:07;;;;;;;2.15;1.85;;;19.70;41.60;;;;;;8328215;28;20037;-46
2024/01/10 16:30:08;;;;;;;2.65;2.05;;;19.70;41.50;;;;;;8328328;28;20100;-48
2024/01/10 16:34:09;;;;;;;2.63;1.92;;;19.70;41.40;;;;;;8328036;28;20037;-46
2024/01/10 16:38:10;;;;;;;1.92;1.67;;;19.70;41.40;;;;;;8328028;28;20079;-46
2024/01/10 16:42:12;;;;;;;;;;;19.60;42.40;;;;;;8294198;28;20113;-48
2024/01/10 16:46:14;;;;;;;5.25;1.88;;;19.50;43.10;;;;;;8295114;28;19913;-47
2024/01/10 16:50:14;;;;;;;;;;;19.50;42.80;;;;;;8294170;28;20384;-48
2024/01/10 16:54:16;;;;;;;2.20;1.90;;;19.60;42.40;;;;;;8295094;28;19909;-47
2024/01/10 16:58:17;;;;;;;5.20;2.28;;;19.60;42.20;;;;;;8315652;28;20120;-47
2024/01/10 17:02:18;;;;;;;2.35;1.42;;;19.70;42.00;;;;;;8327415;28;20037;-48
2024/01/10 17:06:19;;;;;;;3.38;2.15;;;19.70;41.80;;;;;;8327503;28;20061;-51
2024/01/10 17:10:20;;;;;;;2.75;1.67;;;19.70;41.70;;;;;;8326939;28;20057;-50
2024/01/10 17:14:21;;;;;;;3.22;1.90;;;19.70;41.70;;;;;;8327179;28;20041;-47
2024/01/10 17:18:21;;;;;;;3.40;1.80;;;19.70;41.60;;;;;;8326834;28;20104;-50
2024/01/10 17:22:22;;;;;;;4.25;2.05;;;19.70;41.50;;;;;;8327077;28;20284;-50
2024/01/10 17:26:23;;;;;;;3.88;2.08;;;19.80;41.60;;;;;;8326961;28;20030;-48
2024/01/10 17:30:25;;;;;;;2.13;1.88;;;19.60;42.70;;;;;;8332279;28;20395;-47
2024/01/10 17:34:29;;;;;;;4.32;2.10;;;19.50;43.20;;;;;;8337716;28;20394;-48
2024/01/10 17:38:29;;;;;;;5.22;2.13;;;19.50;43.30;;;;;;8337542;28;20056;-48
2024/01/10 17:42:30;;;;;;;2.88;2.30;;;19.60;42.50;;;;;;8336105;28;20038;-49
2024/01/10 17:46:31;;;;;;;3.47;2.05;;;19.70;42.20;;;;;;8337902;28;20025;-47
2024/01/10 17:50:32;;;;;;;2.60;1.70;;;19.70;42.10;;;;;;8337282;28;20029;-48
2024/01/10 17:54:33;;;;;;;3.28;2.17;;;19.70;42.00;;;;;;8336178;28;20029;-45
2024/01/10 17:58:33;;;;;;;5.60;2.60;;;19.70;41.80;;;;;;8337308;28;20121;-47
2024/01/10 18:02:34;;;;;;;3.30;2.17;;;19.70;41.80;;;;;;8337217;28;20037;-45
2024/01/10 18:06:35;;;;;;;5.90;2.53;;;19.80;41.70;;;;;;8336210;28;20049;-45
2024/01/10 18:10:36;;;;;;;5.75;2.28;;;19.80;41.70;;;;;;8337196;28;20702;-46
2024/01/10 18:14:37;;;;;;;4.50;2.17;;;19.80;41.70;;;;;;8337046;28;20574;-46
2024/01/10 18:18:38;;;;;;;6.00;2.30;;;19.60;42.80;;;;;;8336776;28;20540;-45
2024/01/10 18:22:40;;;;;;;3.25;2.00;;;19.50;43.30;;;;;;8335625;28;20071;-45
2024/01/10 18:26:41;;;;;;;3.90;1.90;;;19.60;42.90;;;;;;8335468;28;20493;-46
2024/01/10 18:30:42;;;;;;;4.03;2.15;;;19.70;42.60;;;;;;8336883;28;20029;-45
2024/01/10 18:34:43;;;;;;;4.72;1.98;;;19.70;42.30;;;;;;8336746;28;20502;-46
2024/01/10 18:38:43;;;;;;;3.55;1.85;;;19.80;42.10;;;;;;8336419;28;20057;-46
2024/01/10 18:42:44;;;;;;;4.07;1.80;;;19.80;42.00;;;;;;8331457;28;20437;-46
2024/01/10 18:46:45;;;;;;;3.60;2.05;;;19.80;41.90;;;;;;8331366;28;20029;-46
2024/01/10 18:50:45;;;;;;;2.55;1.75;;;19.80;41.70;;;;;;8331430;28;20095;-46
2024/01/10 18:54:46;;;;;;;3.10;1.95;;;19.80;41.60;;;;;;8331177;28;20116;-47
2024/01/10 18:58:47;;;;;;;4.20;2.20;;;19.80;42.30;;;;;;8331013;28;20459;-45
2024/01/10 19:02:47;;;;;;;4.75;2.25;;;19.90;42.40;;;;;;8330811;28;20060;-46
2024/01/10 19:06:53;;;;;;;11.68;2.47;;;19.70;43.60;;;;;;8329416;28;20109;-47
2024/01/10 19:10:54;;;;;;;5.55;1.98;;;19.60;43.90;;;;;;8330516;28;20045;-47
2024/01/10 19:14:55;;;;;;;3.33;1.88;;;19.70;43.60;;;;;;8330605;28;20033;-46
2024/01/10 19:18:55;;;;;;;2.83;1.85;;;19.80;43.10;;;;;;8330079;28;20079;-46
2024/01/10 19:22:57;;;;;;;2.42;1.90;;;19.80;42.80;;;;;;8330123;28;20037;-47
2024/01/10 19:26:58;;;;;;;3.42;1.85;;;19.80;42.60;;;;;;8330048;28;20079;-47
2024/01/10 19:30:58;;;;;;;3.10;2.13;;;19.80;42.50;;;;;;8329036;28;20049;-48
2024/01/10 19:34:59;;;;;;;4.13;2.03;;;19.80;42.40;;;;;;8329975;28;20041;-47
2024/01/10 19:39:00;;;;;;;3.85;1.80;;;19.80;42.80;;;;;;8329761;28;20168;-46
2024/01/10 19:43:01;;;;;;;3.30;1.73;;;19.80;42.20;;;;;;8329352;28;20052;-47
2024/01/10 19:47:01;;;;;;;4.05;2.22;;;19.80;42.10;;;;;;8329563;28;20041;-45
2024/01/10 19:51:02;;;;;;;2.83;2.03;;;19.70;42.40;;;;;;8329313;28;20033;-46
2024/01/10 19:55:03;;;;;;;2.80;1.92;;;19.60;43.50;;;;;;8328934;28;20037;-45
2024/01/10 19:59:04;;;;;;;4.22;2.20;;;19.50;43.70;;;;;;8329181;28;20042;-45
2024/01/10 20:03:04;;;;;;;3.83;1.90;;;19.60;43.30;;;;;;8328578;28;20088;-45
2024/01/10 20:07:05;;;;;;;2.55;1.75;;;19.60;43.40;;;;;;8329201;28;20464;-46
2024/01/10 20:11:06;;;;;;;3.10;1.95;;;19.60;42.60;;;;;;8328955;28;20049;-46
2024/01/10 20:15:07;;;;;;;2.45;1.90;;;19.70;42.40;;;;;;8328427;28;20048;-48
2024/01/10 20:19:08;;;;;;;3.20;1.80;;;19.80;42.20;;;;;;8328300;28;20029;-46
2024/01/10 20:23:09;;;;;;;3.85;1.88;;;19.80;42.20;;;;;;8328236;28;20037;-47
2024/01/10 20:27:10;;;;;;;3.95;1.80;;;19.80;42.00;;;;;;8326643;28;20388;-48
2024/01/10 20:31:11;;;;;;;;;;;19.80;42.00;;;;;;8328907;28;20025;-48
2024/01/10 20:35:12;;;;;;;4.53;1.80;;;19.80;41.90;;;;;;8327968;28;20438;-46
2024/01/10 20:39:12;;;;;;;3.30;1.75;;;19.70;42.30;;;;;;8326558;28;20072;-45
2024/01/10 20:43:13;;;;;;;2.88;1.90;;;19.60;43.20;;;;;;8327158;28;20033;-46
2024/01/10 20:47:26;;;;;;;6.72;2.00;;;19.50;43.50;;;;;;8327439;28;20113;-48
2024/01/10 20:51:27;;;;;;;3.35;2.13;;;19.50;42.80;;;;;;8327582;28;20080;-47
2024/01/10 20:55:28;;;;;;;5.68;2.13;;;19.60;42.40;;;;;;8327511;28;20037;-48